LPFRLPPR

Guest
Details From LPFR - Faro
To LPPR - Porto
Flight Number -
Tags Standard
Created
Modified
Stats Distance 257 nm / 476 km
Max Altitude 0 ft / 0 m
Waypoints 4
Social Downloads 4
Likes 0
Share VATSIM

Download

Looking for another format? Having issues loading an existing format? Contact us
Advertisement - Login to hide

Notes

None

Route

LPFR BULAS PG LPPR

ID Type Via Altitude Latitude Longitude Leg Dist Tot Dist Heading (true) Name
O LPFR APT - 0 ft / 0 m 37.01729˚ -7.98609˚ - 0 nm - -
BULAS FIX - 0 ft / 0 m 39.09917˚ -8.29139˚ 125 nm 125 nm 354° / 353° -
PG NDB - 0 ft / 0 m 41.07809˚ -8.63654˚ 119 nm 245 nm 353° / 352° PORTO NDB
O LPPR APT - 0 ft / 0 m 41.26333˚ -8.68524˚ 11 nm 257 nm 349° / 349° -

Altitude Profile

Advertisement - Login to hide

Weather


0- 5 10 15 20 25 30 35+ Temperature / ° C

Clouds and Precipitation
Forecast for 2018-05-26 00:00 UTC. Updated 2 hours ago

Ground ~20,000 ft ~40,000 ft Winds

LPFR

Details ICAO LPFR (FAO)
Name Faro
Region Portugal
Timezone Europe/Lisbon (UTC+1.0)
Stats Elevation 24 ft / 7 m (AMSL)
Location 37.015336° -7.972327°
Runways 1
Magnetic Variation 1.883° W

METAR

LPFR 260100Z VRB01KT 9999 BKN010 17/15 Q1013

Decode

TAF

TAF LPFR 252300Z 2600/2624 VRB03KT 9999 FEW012 BECMG 2600/2603 04005KT PROB30 TEMPO 2603/2608 3000 BR BKN003 BECMG 2608/2610 21010KT SCT020 BECMG 2614/2616 25012KT CAVOK BECMG 2620/2622 30007KT

Decode

Departure Runways

ID Width Length Bearing (true) Bearing (mag) Surface Threshold Offset Overrun Length
10 148 ft / 45 m 8,148 ft / 2,484 m 100.08° 101.96° Asphalt 148 ft / 45 m 0 ft / 0 m
28 148 ft / 45 m 8,148 ft / 2,484 m 280.10° 281.98° Asphalt 148 ft / 45 m 0 ft / 0 m

LPPR

Details ICAO LPPR (OPO)
Name Porto
Region Portugal
Timezone Europe/Lisbon (UTC+1.0)
Stats Elevation 228 ft / 69 m (AMSL)
Location 41.247932° -8.681221°
Runways 1
Magnetic Variation 2.282° W

METAR

LPPR 260100Z 00000KT 4500 -RA BR FEW002 15/14 Q1012

Decode

TAF

TAF LPPR 252300Z 2600/2624 VRB03KT 6000 FEW008 PROB30 TEMPO 2600/2608 2000 BR BKN002 BECMG 2608/2610 21008KT 9999 SCT015 BECMG 2613/2616 27008KT BECMG 2618/2620 VRB03KT FEW015 BECMG 2621/2623 5000 BR SCT002 BKN004

Decode

Destination Runways

ID Width Length Bearing (true) Bearing (mag) Surface Threshold Offset Overrun Length
17 148 ft / 45 m 11,451 ft / 3,490 m 168.88° 171.16° Asphalt 984 ft / 300 m 220 ft / 67 m
35 148 ft / 45 m 11,451 ft / 3,490 m 348.89° 351.17° Asphalt 492 ft / 150 m 370 ft / 113 m

Approach Navaids

Runway Type Ident Frequency Range Bearing (true) Bearing (mag) Slope Elevation
17 Localiser PR 109.90 MHz 18 nm / 33 km 168.87° 171.15° - 228 ft / 69 m (AMSL)
17 Glidescope PR 109.90 MHz 10 nm / 19 km 168.88° 171.17° 2.72° 228 ft / 69 m (AMSL)
17 DME PR 109.90 MHz 18 nm / 33 km - - - 228 ft / 69 m (AMSL)

Popular Alternatives